Time;durP1;ratioP1;P1;durP2;ratioP2;P2;SDS_P1;SDS_P2;PMS_P1;PMS_P2;Temp;Humidity;BMP_temperature;BMP_pressure;BME280_temperature;BME280_humidity;BME280_pressure;Samples;Min_cycle;Max_cycle;Signal;HPM_P1;HPM_P2
2023/12/11 00:02:25;;;;;;;;;;;8.40;99.90;;;;;;5108435;27;19920;-69
2023/12/11 00:04:50;;;;;;;;;;;8.40;99.90;;;;;;5103373;27;20253;-69
2023/12/11 00:07:16;;;;;;;;;;;8.30;99.90;;;;;;5109154;27;19922;-68
2023/12/11 00:09:41;;;;;;;;;;;8.30;99.90;;;;;;5114240;27;20314;-68
2023/12/11 00:12:07;;;;;;;;;;;8.30;99.90;;;;;;5105186;28;19908;-68
2023/12/11 00:14:32;;;;;;;;;;;8.30;99.90;;;;;;5106763;28;19923;-68
2023/12/11 00:16:58;;;;;;;;;;;8.30;99.90;;;;;;5106806;28;19911;-68
2023/12/11 00:19:23;;;;;;;;;;;8.30;99.90;;;;;;5106779;28;19911;-68
2023/12/11 00:21:49;;;;;;;;;;;8.30;99.90;;;;;;5112630;27;20451;-69
2023/12/11 00:24:15;;;;;;;;;;;8.30;99.90;;;;;;5127460;27;19975;-69
2023/12/11 00:26:40;;;;;;;;;;;8.30;99.90;;;;;;5121558;27;19908;-69
2023/12/11 00:29:06;;;;;;;;;;;8.30;99.90;;;;;;5100830;28;19931;-68
2023/12/11 00:31:31;;;;;;;;;;;8.30;99.90;;;;;;5106440;28;19946;-68
2023/12/11 00:33:57;;;;;;;;;;;8.30;99.90;;;;;;5106899;28;19916;-68
2023/12/11 00:36:22;;;;;;;;;;;8.30;99.90;;;;;;5106291;28;19915;-68
2023/12/11 00:38:48;;;;;;;;;;;8.30;99.90;;;;;;5106795;28;19911;-69
2023/12/11 00:41:15;;;;;;;;;;;8.20;99.90;;;;;;5106582;28;19989;-68
2023/12/11 00:43:41;;;;;;;;;;;8.20;99.90;;;;;;5105553;28;19911;-69
2023/12/11 00:46:06;;;;;;;;;;;8.20;99.90;;;;;;5113280;27;20599;-69
2023/12/11 00:48:32;;;;;;;;;;;8.30;99.90;;;;;;5106395;27;19916;-69
2023/12/11 00:50:57;;;;;;;;;;;8.20;99.90;;;;;;5106491;28;19911;-68
2023/12/11 00:53:23;;;;;;;;;;;8.20;99.90;;;;;;5106299;27;19957;-69
2023/12/11 00:55:48;;;;;;;;;;;8.20;99.90;;;;;;5106052;28;19954;-68
2023/12/11 00:58:14;;;;;;;;;;;8.20;99.90;;;;;;5104448;28;20293;-69
2023/12/11 01:00:39;;;;;;;;;;;8.20;99.90;;;;;;5106408;27;19918;-69
2023/12/11 01:03:05;;;;;;;;;;;8.20;99.90;;;;;;5106689;28;19919;-69
2023/12/11 01:05:31;;;;;;;;;;;8.20;99.90;;;;;;5104353;28;19966;-68
2023/12/11 01:07:57;;;;;;;;;;;8.10;99.90;;;;;;5108598;27;19951;-69
2023/12/11 01:10:22;;;;;;;;;;;8.20;99.90;;;;;;5105947;28;19943;-68
2023/12/11 01:12:48;;;;;;;;;;;8.20;99.90;;;;;;5106172;28;19918;-68
2023/12/11 01:15:13;;;;;;;;;;;8.20;99.90;;;;;;5105876;28;19916;-68
2023/12/11 01:17:39;;;;;;;;;;;8.20;99.90;;;;;;5114307;27;19954;-69
2023/12/11 01:20:04;;;;;;;;;;;8.20;99.90;;;;;;5106117;28;19939;-68
2023/12/11 01:22:30;;;;;;;;;;;8.20;99.90;;;;;;5105736;27;19915;-69
2023/12/11 01:24:55;;;;;;;;;;;8.20;99.90;;;;;;5105644;28;20279;-68
2023/12/11 01:27:21;;;;;;;;;;;8.20;99.90;;;;;;5105513;28;20611;-68
2023/12/11 01:29:46;;;;;;;;;;;8.20;99.90;;;;;;5099364;28;20312;-68
2023/12/11 01:32:12;;;;;;;;;;;8.20;99.90;;;;;;5105654;27;19915;-69
2023/12/11 01:34:37;;;;;;;;;;;8.20;99.90;;;;;;5113714;27;19954;-68
2023/12/11 01:37:03;;;;;;;;;;;8.20;99.90;;;;;;5104003;28;19947;-68
2023/12/11 01:39:28;;;;;;;;;;;8.20;99.90;;;;;;5105306;28;19971;-68
2023/12/11 01:41:54;;;;;;;;;;;8.20;99.90;;;;;;5111884;27;20006;-69
2023/12/11 01:44:19;;;;;;;;;;;8.20;99.90;;;;;;5107206;27;19973;-68
2023/12/11 01:46:45;;;;;;;;;;;8.20;99.90;;;;;;5105598;28;19960;-68
2023/12/11 01:49:11;;;;;;;;;;;8.20;99.90;;;;;;5105366;28;19916;-68
2023/12/11 01:51:36;;;;;;;;;;;8.20;99.90;;;;;;5097490;27;20444;-69
2023/12/11 01:54:02;;;;;;;;;;;8.20;99.90;;;;;;5105257;28;19920;-69
2023/12/11 01:56:29;;;;;;;;;;;8.20;99.90;;;;;;5104833;28;19911;-68
2023/12/11 01:58:54;;;;;;;;;;;8.20;99.90;;;;;;5105522;28;20015;-69
2023/12/11 02:01:21;;;;;;;;;;;8.20;99.90;;;;;;5103595;28;20002;-69
2023/12/11 02:03:47;;;;;;;;;;;8.20;99.90;;;;;;5113871;27;19919;-68
2023/12/11 02:06:13;;;;;;;;;;;8.10;99.90;;;;;;5103123;28;19911;-69
2023/12/11 02:08:38;;;;;;;;;;;8.20;99.90;;;;;;5105353;28;19985;-68
2023/12/11 02:11:04;;;;;;;;;;;8.20;99.90;;;;;;5105067;28;19915;-69
2023/12/11 02:13:30;;;;;;;;;;;8.10;99.90;;;;;;5104846;28;19965;-69
2023/12/11 02:15:56;;;;;;;;;;;8.20;99.90;;;;;;5104845;28;19912;-69
2023/12/11 02:18:21;;;;;;;;;;;8.10;99.90;;;;;;5106280;28;20002;-69
2023/12/11 02:20:47;;;;;;;;;;;8.20;99.90;;;;;;5116703;27;19998;-68
2023/12/11 02:23:27;;;;;;;;;;;8.10;99.90;;;;;;5108242;27;19953;-69
2023/12/11 02:26:02;;;;;;;;;;;8.10;99.90;;;;;;5119057;27;20026;-69
2023/12/11 02:28:27;;;;;;;;;;;8.10;99.90;;;;;;5102939;27;19912;-69
2023/12/11 02:30:53;;;;;;;;;;;8.10;99.90;;;;;;5108588;27;20545;-69
2023/12/11 02:33:18;;;;;;;;;;;8.10;99.90;;;;;;5099665;28;19918;-69
2023/12/11 02:35:44;;;;;;;;;;;8.10;99.90;;;;;;5103984;28;19916;-69
2023/12/11 02:38:09;;;;;;;;;;;8.10;99.90;;;;;;5104942;28;19908;-68
2023/12/11 02:40:35;;;;;;;;;;;8.10;99.90;;;;;;5104367;28;19908;-69
2023/12/11 02:43:01;;;;;;;;;;;8.10;99.90;;;;;;5103150;28;20007;-69
2023/12/11 02:45:26;;;;;;;;;;;8.10;99.90;;;;;;5105878;28;19911;-68
2023/12/11 02:47:52;;;;;;;;;;;8.10;99.90;;;;;;5125116;27;19915;-69
2023/12/11 02:50:17;;;;;;;;;;;8.10;99.90;;;;;;5105266;28;19976;-68
2023/12/11 02:52:43;;;;;;;;;;;8.10;99.90;;;;;;5104639;27;20538;-68
2023/12/11 02:55:08;;;;;;;;;;;8.10;99.90;;;;;;5104180;28;20467;-68
2023/12/11 02:57:34;;;;;;;;;;;8.10;99.90;;;;;;5104485;28;19912;-68
2023/12/11 02:59:59;;;;;;;;;;;8.10;99.90;;;;;;5102987;28;19961;-69
2023/12/11 03:02:25;;;;;;;;;;;8.10;99.90;;;;;;5104301;28;19920;-68
2023/12/11 03:04:50;;;;;;;;;;;8.10;99.90;;;;;;5104495;28;20625;-68
2023/12/11 03:07:16;;;;;;;;;;;8.10;99.90;;;;;;5106195;28;19911;-68
2023/12/11 03:09:41;;;;;;;;;;;8.10;99.90;;;;;;5108391;28;19923;-69
2023/12/11 03:12:07;;;;;;;;;;;8.00;99.90;;;;;;5124807;27;19915;-68
2023/12/11 03:14:32;;;;;;;;;;;8.10;99.90;;;;;;5119423;27;19915;-69
2023/12/11 03:16:58;;;;;;;;;;;8.00;99.90;;;;;;5115009;27;20376;-69
2023/12/11 03:19:24;;;;;;;;;;;8.00;99.90;;;;;;5118565;27;20000;-69
2023/12/11 03:21:49;;;;;;;;;;;8.00;99.90;;;;;;5115339;27;19911;-69
2023/12/11 03:24:15;;;;;;;;;;;8.00;99.90;;;;;;5107820;27;19911;-69
2023/12/11 03:26:40;;;;;;;;;;;8.00;99.90;;;;;;5107904;28;19918;-69
2023/12/11 03:29:06;;;;;;;;;;;8.00;99.90;;;;;;5101622;28;19923;-68
2023/12/11 03:31:31;;;;;;;;;;;8.00;99.90;;;;;;5107715;28;19915;-69
2023/12/11 03:33:57;;;;;;;;;;;8.00;99.90;;;;;;5107972;28;19912;-69
2023/12/11 03:36:22;;;;;;;;;;;8.00;99.90;;;;;;5117760;27;20006;-69
2023/12/11 03:38:48;;;;;;;;;;;8.00;99.90;;;;;;5120111;27;19911;-69
2023/12/11 03:41:13;;;;;;;;;;;8.00;99.90;;;;;;5119137;27;19920;-69
2023/12/11 03:43:39;;;;;;;;;;;8.00;99.90;;;;;;5115949;27;19912;-69
2023/12/11 03:46:04;;;;;;;;;;;8.00;99.90;;;;;;5107488;28;19920;-68
2023/12/11 03:48:30;;;;;;;;;;;8.00;99.90;;;;;;5115902;27;19915;-69
2023/12/11 03:50:56;;;;;;;;;;;8.00;99.90;;;;;;5106047;28;20364;-68
2023/12/11 03:53:21;;;;;;;;;;;8.00;99.90;;;;;;5107406;27;19979;-68
2023/12/11 03:55:47;;;;;;;;;;;8.00;99.90;;;;;;5106991;28;19923;-69
2023/12/11 03:58:13;;;;;;;;;;;8.00;99.90;;;;;;5107172;28;19912;-69
2023/12/11 04:00:38;;;;;;;;;;;8.00;99.90;;;;;;5107440;28;19927;-69
2023/12/11 04:03:04;;;;;;;;;;;8.10;99.90;;;;;;5107275;28;19957;-69
2023/12/11 04:05:29;;;;;;;;;;;8.10;99.90;;;;;;5115413;27;19959;-69
2023/12/11 04:07:55;;;;;;;;;;;8.10;99.90;;;;;;5107503;28;19939;-68
2023/12/11 04:10:20;;;;;;;;;;;8.10;99.90;;;;;;5115582;27;19962;-69
2023/12/11 04:12:46;;;;;;;;;;;8.10;99.90;;;;;;5107311;28;19919;-69
2023/12/11 04:15:12;;;;;;;;;;;8.00;99.90;;;;;;5107081;28;19919;-68
2023/12/11 04:17:37;;;;;;;;;;;8.00;99.90;;;;;;5106925;27;19915;-69
2023/12/11 04:20:04;;;;;;;;;;;8.00;99.90;;;;;;5106974;28;19919;-68
2023/12/11 04:22:29;;;;;;;;;;;8.00;99.90;;;;;;5106846;28;20331;-69
2023/12/11 04:24:55;;;;;;;;;;;8.10;99.90;;;;;;5105760;28;19947;-69
2023/12/11 04:27:20;;;;;;;;;;;8.10;99.90;;;;;;5124758;27;19917;-69
2023/12/11 04:29:46;;;;;;;;;;;8.10;99.90;;;;;;5111994;27;19961;-69
2023/12/11 04:32:12;;;;;;;;;;;8.10;99.90;;;;;;5119517;27;20329;-69
2023/12/11 04:34:37;;;;;;;;;;;8.10;99.90;;;;;;5106543;28;20306;-69
2023/12/11 04:37:03;;;;;;;;;;;8.10;99.90;;;;;;5113872;27;19912;-69
2023/12/11 04:39:28;;;;;;;;;;;8.10;99.90;;;;;;5108001;27;19973;-69
2023/12/11 04:41:54;;;;;;;;;;;8.10;99.90;;;;;;5106681;28;19912;-69
2023/12/11 04:44:19;;;;;;;;;;;8.10;99.90;;;;;;5106098;28;19992;-69
2023/12/11 04:46:45;;;;;;;;;;;8.10;99.90;;;;;;5106196;28;19908;-69
2023/12/11 04:49:10;;;;;;;;;;;8.10;99.90;;;;;;5106608;28;19945;-69
2023/12/11 04:51:36;;;;;;;;;;;8.20;99.90;;;;;;5109670;27;19954;-68
2023/12/11 04:54:02;;;;;;;;;;;8.10;99.90;;;;;;5120337;27;19916;-69
2023/12/11 04:56:27;;;;;;;;;;;8.10;99.90;;;;;;5114672;27;19990;-68
2023/12/11 04:58:53;;;;;;;;;;;8.10;99.90;;;;;;5112269;27;19915;-69
2023/12/11 05:01:19;;;;;;;;;;;8.10;99.90;;;;;;5114885;27;20332;-69
2023/12/11 05:03:44;;;;;;;;;;;8.10;99.90;;;;;;5105189;27;19912;-69
2023/12/11 05:06:10;;;;;;;;;;;8.10;99.90;;;;;;5104648;28;20379;-69
2023/12/11 05:08:35;;;;;;;;;;;8.10;99.90;;;;;;5106183;28;19908;-69
2023/12/11 05:11:01;;;;;;;;;;;8.10;99.90;;;;;;5106421;28;19918;-69
2023/12/11 05:13:26;;;;;;;;;;;8.10;99.90;;;;;;5107717;27;19911;-68
2023/12/11 05:15:52;;;;;;;;;;;8.10;99.90;;;;;;5105824;28;19920;-69
2023/12/11 05:18:17;;;;;;;;;;;8.10;99.90;;;;;;5105587;28;19912;-69
2023/12/11 05:20:43;;;;;;;;;;;8.10;99.90;;;;;;5105825;28;19911;-68
2023/12/11 05:23:09;;;;;;;;;;;8.10;99.90;;;;;;5105580;28;19911;-69
2023/12/11 05:25:34;;;;;;;;;;;8.10;99.90;;;;;;5105287;28;20367;-68
2023/12/11 05:28:00;;;;;;;;;;;8.10;99.90;;;;;;5101588;28;20358;-69
2023/12/11 05:30:25;;;;;;;;;;;8.10;99.90;;;;;;5102676;28;20322;-69
2023/12/11 05:32:51;;;;;;;;;;;8.10;99.90;;;;;;5105659;28;20388;-69
2023/12/11 05:35:16;;;;;;;;;;;8.10;99.90;;;;;;5104865;28;19916;-69
2023/12/11 05:37:42;;;;;;;;;;;8.10;99.90;;;;;;5105675;28;19923;-69
2023/12/11 05:40:08;;;;;;;;;;;8.10;99.90;;;;;;5105309;28;20589;-69
2023/12/11 05:42:33;;;;;;;;;;;8.10;99.90;;;;;;5105257;28;20613;-69
2023/12/11 05:44:59;;;;;;;;;;;8.10;99.90;;;;;;5105065;28;20002;-69
2023/12/11 05:47:25;;;;;;;;;;;8.10;99.90;;;;;;5120114;27;19923;-69
2023/12/11 05:49:50;;;;;;;;;;;8.00;99.90;;;;;;5118597;27;20006;-69
2023/12/11 05:52:16;;;;;;;;;;;8.00;99.90;;;;;;5123947;27;20265;-69
2023/12/11 05:54:41;;;;;;;;;;;8.00;99.90;;;;;;5112711;27;19920;-69
2023/12/11 05:57:07;;;;;;;;;;;8.00;99.90;;;;;;5103634;28;20233;-69
2023/12/11 05:59:32;;;;;;;;;;;8.00;99.90;;;;;;5104478;28;19916;-69
2023/12/11 06:01:58;;;;;;;;;;;8.00;99.90;;;;;;5103090;28;19916;-69
2023/12/11 06:04:23;;;;;;;;;;;8.00;99.90;;;;;;5104233;28;19954;-68
2023/12/11 06:06:49;;;;;;;;;;;8.00;99.90;;;;;;5103068;28;19911;-68
2023/12/11 06:09:15;;;;;;;;;;;8.00;99.90;;;;;;5105075;28;19918;-69
2023/12/11 06:11:40;;;;;;;;;;;8.00;99.90;;;;;;5097017;28;20368;-69
2023/12/11 06:14:06;;;;;;;;;;;8.00;99.90;;;;;;5104977;28;19938;-69
2023/12/11 06:16:32;;;;;;;;;;;8.00;99.90;;;;;;5104550;28;19950;-69
2023/12/11 06:18:57;;;;;;;;;;;8.00;99.90;;;;;;5113484;27;19958;-69
2023/12/11 06:21:24;;;;;;;;;;;8.00;99.90;;;;;;5104478;28;20018;-69
2023/12/11 06:23:49;;;;;;;;;;;8.00;99.90;;;;;;5103298;28;19911;-69
2023/12/11 06:26:28;;;;;;;;;;;8.00;99.90;;;;;;5104612;28;20386;-69
2023/12/11 06:28:54;;;;;;;;;;;8.00;99.90;;;;;;5092008;28;19926;-69
2023/12/11 06:31:19;;;;;;;;;;;8.00;99.90;;;;;;5104548;28;19912;-68
2023/12/11 06:33:45;;;;;;;;;;;8.00;99.90;;;;;;5104843;28;19912;-69
2023/12/11 06:36:11;;;;;;;;;;;8.00;99.90;;;;;;5111419;27;19947;-68
2023/12/11 06:38:36;;;;;;;;;;;8.00;99.90;;;;;;5104631;27;19911;-69
2023/12/11 06:41:02;;;;;;;;;;;8.10;99.90;;;;;;5104811;27;20352;-69
2023/12/11 06:43:28;;;;;;;;;;;8.10;99.90;;;;;;5117100;27;20413;-69
2023/12/11 06:45:53;;;;;;;;;;;8.10;99.90;;;;;;5108883;28;20018;-69
2023/12/11 06:48:19;;;;;;;;;;;8.10;99.90;;;;;;5107404;28;19923;-69
2023/12/11 06:50:45;;;;;;;;;;;8.10;99.90;;;;;;5108923;28;19912;-68
2023/12/11 06:53:11;;;;;;;;;;;8.10;99.90;;;;;;5108826;28;20261;-69
2023/12/11 06:55:36;;;;;;;;;;;8.10;99.90;;;;;;5106566;28;19926;-69
2023/12/11 06:58:02;;;;;;;;;;;8.10;99.90;;;;;;5108627;28;19916;-69
2023/12/11 07:00:29;;;;;;;;;;;8.10;99.90;;;;;;5107973;28;19915;-69
2023/12/11 07:02:54;;;;;;;;;;;8.10;99.90;;;;;;5108164;28;19920;-69
2023/12/11 07:05:20;;;;;;;;;;;8.10;99.90;;;;;;5107413;28;20011;-68
2023/12/11 07:07:45;;;;;;;;;;;8.10;99.90;;;;;;5112266;27;20276;-69
2023/12/11 07:10:11;;;;;;;;;;;8.10;99.90;;;;;;5112570;27;19912;-68
2023/12/11 07:12:40;;;;;;;;;;;8.10;99.90;;;;;;5128007;27;20048;-69
2023/12/11 07:15:06;;;;;;;;;;;8.10;99.90;;;;;;5112844;27;20297;-69
2023/12/11 07:17:32;;;;;;;;;;;8.10;99.90;;;;;;5110825;27;19923;-68
2023/12/11 07:19:57;;;;;;;;;;;8.10;99.90;;;;;;5107952;28;19977;-69
2023/12/11 07:22:24;;;;;;;;;;;8.10;99.90;;;;;;5107725;28;20821;-69
2023/12/11 07:24:49;;;;;;;;;;;8.10;99.90;;;;;;5107797;27;19946;-69
2023/12/11 07:27:15;;;;;;;;;;;8.10;99.90;;;;;;5107928;28;19972;-69
2023/12/11 07:29:40;;;;;;;;;;;8.20;99.90;;;;;;5107307;28;19962;-69
2023/12/11 07:32:06;;;;;;;;;;;8.20;99.90;;;;;;5107927;28;19911;-69
2023/12/11 07:34:32;;;;;;;;;;;8.20;99.90;;;;;;5107484;28;19927;-69
2023/12/11 07:36:58;;;;;;;;;;;8.20;99.90;;;;;;5106231;28;19908;-69
2023/12/11 07:39:23;;;;;;;;;;;8.20;99.90;;;;;;5106567;28;20378;-69
2023/12/11 07:41:49;;;;;;;;;;;8.20;99.90;;;;;;5107922;28;19911;-69
2023/12/11 07:44:15;;;;;;;;;;;8.20;99.90;;;;;;5106166;28;19912;-69
2023/12/11 07:46:40;;;;;;;;;;;8.20;99.90;;;;;;5105359;27;19908;-69
2023/12/11 07:49:07;;;;;;;;;;;8.20;99.90;;;;;;5107648;28;19912;-69
2023/12/11 07:51:32;;;;;;;;;;;8.20;99.90;;;;;;5109653;27;20479;-69
2023/12/11 07:53:58;;;;;;;;;;;8.20;99.90;;;;;;5121332;27;19919;-68
2023/12/11 07:56:24;;;;;;;;;;;8.20;99.90;;;;;;5124983;27;20455;-68
2023/12/11 07:58:50;;;;;;;;;;;8.20;99.90;;;;;;5123205;27;19919;-68
2023/12/11 08:01:16;;;;;;;;;;;8.20;99.90;;;;;;5124375;27;20641;-69
2023/12/11 08:03:42;;;;;;;;;;;8.20;99.90;;;;;;5099503;28;19915;-68
2023/12/11 08:06:08;;;;;;;;;;;8.20;99.90;;;;;;5107315;28;19907;-69
2023/12/11 08:08:40;;;;;;;;;;;8.20;99.90;;;;;;5107416;28;19923;-69
2023/12/11 08:11:27;;;;;;;;;;;8.20;99.90;;;;;;5107010;28;19919;-69
2023/12/11 08:13:52;;;;;;;;;;;8.20;99.90;;;;;;5105342;27;19917;-69
2023/12/11 08:16:18;;;;;;;;;;;8.20;99.90;;;;;;5127248;27;19915;-69
2023/12/11 08:18:44;;;;;;;;;;;8.20;99.90;;;;;;5123670;27;20113;-69
2023/12/11 08:21:10;;;;;;;;;;;8.20;99.90;;;;;;5107337;28;19999;-69
2023/12/11 08:23:37;;;;;;;;;;;8.20;99.90;;;;;;5105511;28;19972;-69
2023/12/11 08:26:03;;;;;;;;;;;8.20;99.90;;;;;;5106941;28;19908;-69
2023/12/11 08:28:28;;;;;;;;;;;8.20;99.90;;;;;;5106369;27;20737;-69
2023/12/11 08:30:54;;;;;;;;;;;8.20;99.90;;;;;;5106885;28;20616;-69
2023/12/11 08:33:20;;;;;;;;;;;8.20;99.90;;;;;;5107806;27;20396;-69
2023/12/11 08:35:46;;;;;;;;;;;8.30;99.90;;;;;;5105902;27;19997;-69
2023/12/11 08:38:11;;;;;;;;;;;8.20;99.90;;;;;;5105830;28;20121;-69
2023/12/11 08:40:37;;;;;;;;;;;8.20;99.90;;;;;;5116045;27;20306;-69
2023/12/11 08:43:03;;;;;;;;;;;8.30;99.90;;;;;;5106188;28;19935;-68
2023/12/11 08:45:29;;;;;;;;;;;8.30;99.90;;;;;;5105699;27;19916;-69
2023/12/11 08:47:54;;;;;;;;;;;8.30;99.90;;;;;;5109303;27;19911;-68
2023/12/11 08:50:20;;;;;;;;;;;8.30;99.90;;;;;;5107977;27;19919;-68
2023/12/11 08:52:45;;;;;;;;;;;8.30;99.90;;;;;;5110263;27;20283;-69
2023/12/11 08:55:11;;;;;;;;;;;8.30;99.90;;;;;;5105454;27;20398;-69
2023/12/11 08:57:36;;;;;;;;;;;8.30;99.90;;;;;;5107061;27;20618;-69
2023/12/11 09:00:05;;;;;;;;;;;8.30;99.90;;;;;;5103355;28;19927;-69
2023/12/11 09:02:31;;;;;;;;;;;8.30;99.90;;;;;;5100661;28;19908;-69
2023/12/11 09:04:56;;;;;;;;;;;8.30;99.90;;;;;;5109850;27;20346;-69
2023/12/11 09:07:22;;;;;;;;;;;8.30;99.90;;;;;;5107601;27;19927;-69
2023/12/11 09:09:47;;;;;;;;;;;8.30;99.90;;;;;;5105248;27;19994;-69
2023/12/11 09:12:13;;;;;;;;;;;8.40;99.90;;;;;;5113237;27;19912;-69
2023/12/11 09:14:38;;;;;;;;;;;8.30;99.90;;;;;;5105594;27;19960;-69
2023/12/11 09:17:04;;;;;;;;;;;8.40;99.90;;;;;;5095150;28;20001;-69
2023/12/11 09:19:30;;;;;;;;;;;8.30;99.90;;;;;;5104269;27;20444;-68
2023/12/11 09:21:56;;;;;;;;;;;8.40;99.90;;;;;;5097248;27;20675;-69
2023/12/11 09:24:22;;;;;;;;;;;8.40;99.90;;;;;;5107873;27;19969;-69
2023/12/11 09:26:47;;;;;;;;;;;8.40;99.90;;;;;;5108974;27;19935;-69
2023/12/11 09:29:13;;;;;;;;;;;8.40;99.90;;;;;;5089934;27;20462;-69
2023/12/11 09:31:38;;;;;;;;;;;8.40;99.90;;;;;;5098862;27;20408;-69
2023/12/11 09:34:04;;;;;;;;;;;8.40;99.90;;;;;;5108020;27;19922;-68
2023/12/11 09:36:29;;;;;;;;;;;8.40;99.90;;;;;;5094780;28;19908;-69
2023/12/11 09:38:58;;;;;;;;;;;8.50;99.90;;;;;;5098151;28;19909;-69
2023/12/11 09:41:28;;;;;;;;;;;8.50;99.90;;;;;;5095297;28;20006;-69
2023/12/11 09:43:54;;;;;;;;;;;8.50;99.90;;;;;;5103900;27;20002;-69
2023/12/11 09:46:20;;;;;;;;;;;8.50;99.90;;;;;;5103167;27;19942;-69
2023/12/11 09:48:47;;;;;;;;;;;8.50;99.90;;;;;;5096954;27;19946;-69
2023/12/11 09:51:15;;;;;;;;;;;8.50;99.90;;;;;;5104475;28;19908;-68
2023/12/11 09:53:41;;;;;;;;;;;8.50;99.90;;;;;;5115914;27;19907;-68
2023/12/11 09:56:06;;;;;;;;;;;8.50;99.90;;;;;;5111243;27;19916;-69
2023/12/11 09:58:32;;;;;;;;;;;8.50;99.90;;;;;;5111589;27;19930;-69
2023/12/11 10:01:00;;;;;;;;;;;8.50;99.90;;;;;;5103054;28;20065;-69
2023/12/11 10:03:27;;;;;;;;;;;8.50;99.90;;;;;;5111938;27;19911;-69
2023/12/11 10:05:55;;;;;;;;;;;8.50;99.90;;;;;;5084207;28;19912;-69
2023/12/11 10:08:20;;;;;;;;;;;8.50;99.90;;;;;;5090475;28;19922;-69
2023/12/11 10:10:46;;;;;;;;;;;8.50;99.90;;;;;;5094828;28;19912;-68
2023/12/11 10:13:22;;;;;;;;;;;8.50;99.90;;;;;;5099632;27;19916;-69
2023/12/11 10:15:48;;;;;;;;;;;8.50;99.90;;;;;;5102875;28;20483;-68
2023/12/11 10:18:13;;;;;;;;;;;8.60;99.90;;;;;;5112319;27;19921;-69
2023/12/11 10:20:40;;;;;;;;;;;8.60;99.90;;;;;;5115848;27;19968;-69
2023/12/11 10:23:12;;;;;;;;;;;8.60;99.90;;;;;;5123658;27;19950;-69
2023/12/11 10:25:40;;;;;;;;;;;8.60;99.90;;;;;;5091836;28;19923;-69
2023/12/11 10:28:07;;;;;;;;;;;8.60;99.90;;;;;;5107287;27;19907;-69
2023/12/11 10:30:32;;;;;;;;;;;8.60;99.90;;;;;;5107099;28;19924;-69
2023/12/11 10:33:02;;;;;;;;;;;8.60;99.90;;;;;;5110579;27;19918;-69
2023/12/11 10:35:28;;;;;;;;;;;8.60;99.90;;;;;;5114111;27;20525;-69
2023/12/11 10:38:02;;;;;;;;;;;8.60;99.90;;;;;;5108417;28;19919;-69
2023/12/11 10:40:41;;;;;;;;;;;8.60;99.90;;;;;;5107284;28;20020;-69
2023/12/11 10:43:07;;;;;;;;;;;8.60;99.90;;;;;;5106454;28;20057;-69
2023/12/11 10:45:33;;;;;;;;;;;8.60;99.90;;;;;;5114158;27;20333;-69
2023/12/11 10:48:00;;;;;;;;;;;8.60;99.90;;;;;;5116687;27;19911;-68
2023/12/11 10:50:25;;;;;;;;;;;8.60;99.90;;;;;;5115912;27;20305;-69
2023/12/11 10:52:51;;;;;;;;;;;8.60;99.90;;;;;;5111757;27;19918;-69
2023/12/11 10:55:16;;;;;;;;;;;8.60;99.90;;;;;;5095854;28;20553;-68
2023/12/11 10:57:43;;;;;;;;;;;8.70;99.90;;;;;;5103468;28;20015;-68
2023/12/11 11:00:13;;;;;;;;;;;8.70;99.90;;;;;;5112871;27;19965;-69
2023/12/11 11:02:40;;;;;;;;;;;8.70;99.90;;;;;;5106587;28;19950;-68
2023/12/11 11:05:05;;;;;;;;;;;8.70;99.90;;;;;;5109392;27;19938;-69
2023/12/11 11:07:34;;;;;;;;;;;8.70;99.90;;;;;;5103381;28;19916;-69
2023/12/11 11:10:06;;;;;;;;;;;8.70;99.90;;;;;;5105000;28;20494;-69
2023/12/11 11:12:36;;;;;;;;;;;8.70;99.90;;;;;;5106306;28;19947;-69
2023/12/11 11:15:02;;;;;;;;;;;8.60;99.90;;;;;;5104902;28;19920;-69
2023/12/11 11:17:55;;;;;;;;;;;8.70;99.90;;;;;;5111988;28;19929;-69
2023/12/11 11:20:21;;;;;;;;;;;8.70;99.90;;;;;;5110476;27;19999;-69
2023/12/11 11:22:47;;;;;;;;;;;8.70;99.90;;;;;;5107738;27;20002;-69
2023/12/11 11:25:31;;;;;;;;;;;8.60;99.90;;;;;;5095010;28;20569;-68
2023/12/11 11:27:56;;;;;;;;;;;8.60;99.90;;;;;;5097506;27;19990;-69
2023/12/11 11:30:41;;;;;;;;;;;8.60;99.90;;;;;;5128266;27;20280;-69
2023/12/11 11:33:08;;;;;;;;;;;8.70;99.90;;;;;;5107442;28;19992;-69
2023/12/11 11:36:02;;;;;;;;;;;8.70;99.90;;;;;;5089662;28;19926;-69
2023/12/11 11:38:46;;;;;;;;;;;8.70;99.90;;;;;;5104003;27;19912;-69
2023/12/11 11:41:40;;;;;;;;;;;8.70;99.90;;;;;;5117973;27;19919;-69
2023/12/11 11:44:06;;;;;;;;;;;8.70;99.90;;;;;;5102554;27;19959;-69
2023/12/11 11:47:04;;;;;;;;;;;8.70;99.90;;;;;;5111609;27;19939;-69
2023/12/11 11:49:36;;;;;;;;;;;8.70;99.90;;;;;;5071235;27;19919;-69
2023/12/11 11:52:03;;;;;;;;;;;8.70;99.90;;;;;;5121083;27;19918;-69
2023/12/11 11:54:29;;;;;;;;;;;8.70;99.90;;;;;;5125353;27;19922;-69
2023/12/11 11:56:55;;;;;;;;;;;8.70;99.90;;;;;;5107429;27;19912;-69
2023/12/11 11:59:20;;;;;;;;;;;8.70;99.90;;;;;;5122211;27;19975;-69
2023/12/11 12:01:48;;;;;;;;;;;8.70;99.90;;;;;;5110507;27;20552;-69
2023/12/11 12:04:31;;;;;;;;;;;8.70;99.90;;;;;;5118555;27;19912;-69
2023/12/11 12:06:58;;;;;;;;;;;8.70;99.90;;;;;;5113307;27;19946;-69
2023/12/11 12:09:24;;;;;;;;;;;8.70;99.90;;;;;;5109631;27;19929;-69
2023/12/11 12:11:50;;;;;;;;;;;8.70;99.90;;;;;;5101042;28;19916;-69
2023/12/11 12:14:15;;;;;;;;;;;8.70;99.90;;;;;;5102989;27;19912;-69
2023/12/11 12:16:41;;;;;;;;;;;8.70;99.90;;;;;;5108886;27;19914;-69
2023/12/11 12:19:07;;;;;;;;;;;8.70;99.90;;;;;;5103518;27;19912;-69
2023/12/11 12:21:45;;;;;;;;;;;8.70;99.90;;;;;;5121137;27;19922;-69
2023/12/11 12:24:10;;;;;;;;;;;8.80;99.90;;;;;;5108990;27;19916;-69
2023/12/11 12:26:36;;;;;;;;;;;8.70;99.90;;;;;;5105134;27;19916;-69
2023/12/11 12:29:03;;;;;;;;;;;8.70;99.90;;;;;;5110393;27;19946;-68
2023/12/11 12:31:30;;;;;;;;;;;8.80;99.90;;;;;;5115179;27;20594;-69
2023/12/11 12:33:56;;;;;;;;;;;8.80;99.90;;;;;;5113032;27;19931;-68
2023/12/11 12:36:22;;;;;;;;;;;8.80;99.90;;;;;;5113726;27;20365;-69
2023/12/11 12:38:47;;;;;;;;;;;8.70;99.90;;;;;;5093889;28;19912;-68
2023/12/11 12:41:13;;;;;;;;;;;8.70;99.90;;;;;;5098329;27;19911;-68
2023/12/11 12:43:39;;;;;;;;;;;8.70;99.90;;;;;;5098065;27;19912;-69
2023/12/11 12:46:04;;;;;;;;;;;8.70;99.90;;;;;;5109762;27;19912;-69
2023/12/11 12:48:30;;;;;;;;;;;8.80;99.90;;;;;;5122303;27;19907;-69
2023/12/11 12:51:11;;;;;;;;;;;8.70;99.90;;;;;;5118139;27;19911;-69
2023/12/11 12:53:49;;;;;;;;;;;8.70;99.90;;;;;;5105541;28;19919;-69
2023/12/11 12:56:16;;;;;;;;;;;8.80;99.90;;;;;;5121668;27;19915;-69
2023/12/11 12:58:42;;;;;;;;;;;8.70;99.90;;;;;;5114489;27;19964;-69
2023/12/11 13:01:07;;;;;;;;;;;8.70;99.90;;;;;;5112125;27;19911;-69
2023/12/11 13:03:33;;;;;;;;;;;8.70;99.90;;;;;;5107478;27;20011;-69
2023/12/11 13:05:59;;;;;;;;;;;8.70;99.90;;;;;;5095327;28;19915;-69
2023/12/11 13:08:24;;;;;;;;;;;8.70;99.90;;;;;;5095496;28;20520;-69
2023/12/11 13:10:56;;;;;;;;;;;8.70;99.90;;;;;;5096962;28;19912;-69
2023/12/11 13:13:22;;;;;;;;;;;8.70;99.90;;;;;;5104447;28;20779;-69
2023/12/11 13:15:48;;;;;;;;;;;8.70;99.90;;;;;;5098513;28;20002;-68
2023/12/11 13:18:15;;;;;;;;;;;8.70;99.90;;;;;;5085009;27;20010;-68
2023/12/11 13:20:40;;;;;;;;;;;8.70;99.90;;;;;;5103788;27;19954;-69
2023/12/11 13:23:06;;;;;;;;;;;8.70;99.90;;;;;;5119714;27;20404;-69
2023/12/11 13:25:31;;;;;;;;;;;8.70;99.90;;;;;;5106450;27;19926;-68
2023/12/11 13:27:57;;;;;;;;;;;8.80;99.90;;;;;;5103422;27;20425;-68
2023/12/11 13:30:22;;;;;;;;;;;8.80;99.90;;;;;;5109982;27;19927;-69
2023/12/11 13:32:48;;;;;;;;;;;8.80;99.90;;;;;;5109481;27;20440;-69
2023/12/11 13:35:13;;;;;;;;;;;8.80;99.90;;;;;;5092357;28;19955;-69
2023/12/11 13:37:39;;;;;;;;;;;8.70;99.90;;;;;;5105907;27;19953;-69
2023/12/11 13:40:07;;;;;;;;;;;8.70;99.90;;;;;;5118029;27;21366;-69
2023/12/11 13:42:32;;;;;;;;;;;8.70;99.90;;;;;;5111148;27;19951;-69
2023/12/11 13:44:58;;;;;;;;;;;8.70;99.90;;;;;;5113044;27;20006;-69
2023/12/11 13:47:24;;;;;;;;;;;8.70;99.90;;;;;;5112791;27;19919;-69
2023/12/11 13:49:50;;;;;;;;;;;8.70;99.90;;;;;;5104369;27;19911;-69
2023/12/11 13:52:15;;;;;;;;;;;8.70;99.90;;;;;;5112973;27;21251;-69
2023/12/11 13:54:41;;;;;;;;;;;8.70;99.90;;;;;;5112277;27;20328;-69
2023/12/11 13:57:06;;;;;;;;;;;8.70;99.90;;;;;;5104362;28;20399;-69
2023/12/11 13:59:32;;;;;;;;;;;8.70;99.90;;;;;;5115639;27;19988;-69
2023/12/11 14:01:59;;;;;;;;;;;8.70;99.90;;;;;;5099051;28;20005;-69
2023/12/11 14:04:26;;;;;;;;;;;8.70;99.90;;;;;;5118008;27;19911;-69
2023/12/11 14:06:51;;;;;;;;;;;8.70;99.90;;;;;;5108446;27;19908;-69
2023/12/11 14:09:17;;;;;;;;;;;8.70;99.90;;;;;;5108493;27;19912;-69
2023/12/11 14:11:42;;;;;;;;;;;8.70;99.90;;;;;;5112386;27;19961;-69
2023/12/11 14:14:08;;;;;;;;;;;8.70;99.90;;;;;;5109705;27;19911;-69
2023/12/11 14:16:33;;;;;;;;;;;8.70;99.90;;;;;;5098582;27;20637;-69
2023/12/11 14:18:59;;;;;;;;;;;8.70;99.90;;;;;;5105434;27;20404;-69
2023/12/11 14:21:24;;;;;;;;;;;8.70;99.90;;;;;;5100758;28;19912;-69
2023/12/11 14:23:50;;;;;;;;;;;8.70;99.90;;;;;;5098905;28;19908;-68
2023/12/11 14:26:16;;;;;;;;;;;8.60;99.90;;;;;;5124721;27;19920;-69
2023/12/11 14:28:42;;;;;;;;;;;8.60;99.90;;;;;;5106745;28;20300;-69